Batterdale, United Kingdom
Current Conditions -  °F | °C
As of 11:20 AM on Tuesday 21 Oct 2014 (Local Time) from EGGW Reporting Station
Broken Clouds Broken Clouds  
Wind Chill: 52°   Ceiling: 4000
Heat Index: 52°   Visibility: 6mi
Dew Point: 41°   Wind: 31mph
Humidity: 67%   Direction: 280°W
Pressure: 29.62"   Gusts: 44mph
Location:  51.76°N, 0.21°W
Report Text: EGGW 211020Z 28027G38KT 9999 SCT032 BKN040 11/05 Q1003
Loading
Personal Weather Stations






























Interactive Weather Map New forecast layout! Learn more

10-Day Weather Forecast

Advertisements
Track Severe Weather on mobile